sensor_id;sensor_type;location;lat;lon;timestamp;temperature;humidity
1337;DHT22;662;48.814;9.318;2023-06-19T00:01:17;26.90;39.30
1337;DHT22;662;48.814;9.318;2023-06-19T00:03:43;26.90;39.60
1337;DHT22;662;48.814;9.318;2023-06-19T00:06:09;26.90;39.60
1337;DHT22;662;48.814;9.318;2023-06-19T00:08:35;26.90;39.60
1337;DHT22;662;48.814;9.318;2023-06-19T00:11:01;26.80;39.70
1337;DHT22;662;48.814;9.318;2023-06-19T00:13:27;26.80;39.70
1337;DHT22;662;48.814;9.318;2023-06-19T00:15:53;26.80;39.90
1337;DHT22;662;48.814;9.318;2023-06-19T00:18:18;26.80;39.90
1337;DHT22;662;48.814;9.318;2023-06-19T00:20:45;26.70;39.90
1337;DHT22;662;48.814;9.318;2023-06-19T00:23:12;26.70;39.90
1337;DHT22;662;48.814;9.318;2023-06-19T00:25:42;26.70;40.00
1337;DHT22;662;48.814;9.318;2023-06-19T00:28:09;26.70;39.90
1337;DHT22;662;48.814;9.318;2023-06-19T00:30:39;26.70;39.80
1337;DHT22;662;48.814;9.318;2023-06-19T00:33:05;26.80;39.90
1337;DHT22;662;48.814;9.318;2023-06-19T00:35:30;26.70;39.80
1337;DHT22;662;48.814;9.318;2023-06-19T00:37:56;26.80;39.80
1337;DHT22;662;48.814;9.318;2023-06-19T00:40:31;26.80;40.00
1337;DHT22;662;48.814;9.318;2023-06-19T00:42:58;26.80;39.90
1337;DHT22;662;48.814;9.318;2023-06-19T00:45:24;26.80;39.90
1337;DHT22;662;48.814;9.318;2023-06-19T00:47:54;26.80;39.80
1337;DHT22;662;48.814;9.318;2023-06-19T00:50:21;26.80;39.90
1337;DHT22;662;48.814;9.318;2023-06-19T00:52:47;26.80;39.80
1337;DHT22;662;48.814;9.318;2023-06-19T00:55:13;26.80;39.70
1337;DHT22;662;48.814;9.318;2023-06-19T00:57:40;26.90;39.70
1337;DHT22;662;48.814;9.318;2023-06-19T01:00:06;26.80;39.60
1337;DHT22;662;48.814;9.318;2023-06-19T01:02:33;26.80;39.70
1337;DHT22;662;48.814;9.318;2023-06-19T01:04:59;26.80;39.70
1337;DHT22;662;48.814;9.318;2023-06-19T01:07:41;26.80;40.00
1337;DHT22;662;48.814;9.318;2023-06-19T01:10:12;26.90;40.10
1337;DHT22;662;48.814;9.318;2023-06-19T01:12:44;26.80;39.80
1337;DHT22;662;48.814;9.318;2023-06-19T01:15:16;26.80;39.80
1337;DHT22;662;48.814;9.318;2023-06-19T01:17:42;26.80;39.80
1337;DHT22;662;48.814;9.318;2023-06-19T01:20:09;26.80;39.80
1337;DHT22;662;48.814;9.318;2023-06-19T01:22:37;26.80;39.90
1337;DHT22;662;48.814;9.318;2023-06-19T01:25:02;26.80;39.90
1337;DHT22;662;48.814;9.318;2023-06-19T01:27:31;26.80;40.00
1337;DHT22;662;48.814;9.318;2023-06-19T01:29:58;26.80;40.20
1337;DHT22;662;48.814;9.318;2023-06-19T01:35:05;26.70;40.00
1337;DHT22;662;48.814;9.318;2023-06-19T01:37:33;26.70;40.10
1337;DHT22;662;48.814;9.318;2023-06-19T01:39:59;26.70;40.30
1337;DHT22;662;48.814;9.318;2023-06-19T01:42:27;26.60;40.40
1337;DHT22;662;48.814;9.318;2023-06-19T01:44:53;26.60;40.50
1337;DHT22;662;48.814;9.318;2023-06-19T01:47:19;26.50;40.50
1337;DHT22;662;48.814;9.318;2023-06-19T01:49:46;26.50;40.70
1337;DHT22;662;48.814;9.318;2023-06-19T01:52:13;26.40;40.80
1337;DHT22;662;48.814;9.318;2023-06-19T01:54:39;26.40;41.20
1337;DHT22;662;48.814;9.318;2023-06-19T01:57:05;26.30;41.30
1337;DHT22;662;48.814;9.318;2023-06-19T01:59:30;26.30;41.40
1337;DHT22;662;48.814;9.318;2023-06-19T02:01:58;26.30;41.60
1337;DHT22;662;48.814;9.318;2023-06-19T02:04:23;26.20;41.70
1337;DHT22;662;48.814;9.318;2023-06-19T02:06:49;26.20;41.80
1337;DHT22;662;48.814;9.318;2023-06-19T02:09:15;26.10;42.00
1337;DHT22;662;48.814;9.318;2023-06-19T02:11:41;26.10;42.10
1337;DHT22;662;48.814;9.318;2023-06-19T02:14:06;26.10;42.30
1337;DHT22;662;48.814;9.318;2023-06-19T02:16:32;26.00;42.50
1337;DHT22;662;48.814;9.318;2023-06-19T02:18:58;25.90;42.70
1337;DHT22;662;48.814;9.318;2023-06-19T02:21:23;25.90;43.00
1337;DHT22;662;48.814;9.318;2023-06-19T02:23:49;25.80;43.10
1337;DHT22;662;48.814;9.318;2023-06-19T02:26:15;25.80;43.20
1337;DHT22;662;48.814;9.318;2023-06-19T02:28:41;25.80;43.30
1337;DHT22;662;48.814;9.318;2023-06-19T02:31:06;25.80;43.40
1337;DHT22;662;48.814;9.318;2023-06-19T02:33:32;25.80;43.60
1337;DHT22;662;48.814;9.318;2023-06-19T02:35:58;25.70;43.60
1337;DHT22;662;48.814;9.318;2023-06-19T02:38:27;25.70;43.60
1337;DHT22;662;48.814;9.318;2023-06-19T02:40:56;25.70;43.70
1337;DHT22;662;48.814;9.318;2023-06-19T02:43:26;25.70;43.60
1337;DHT22;662;48.814;9.318;2023-06-19T02:45:52;25.70;43.60
1337;DHT22;662;48.814;9.318;2023-06-19T02:48:18;25.70;43.80
1337;DHT22;662;48.814;9.318;2023-06-19T02:50:44;25.60;43.90
1337;DHT22;662;48.814;9.318;2023-06-19T02:53:10;25.70;44.10
1337;DHT22;662;48.814;9.318;2023-06-19T02:55:36;25.60;44.30
1337;DHT22;662;48.814;9.318;2023-06-19T02:58:02;25.60;44.50
1337;DHT22;662;48.814;9.318;2023-06-19T03:00:28;25.60;44.60
1337;DHT22;662;48.814;9.318;2023-06-19T03:02:54;25.50;44.60
1337;DHT22;662;48.814;9.318;2023-06-19T03:05:20;25.50;44.80
1337;DHT22;662;48.814;9.318;2023-06-19T03:07:45;25.50;45.00
1337;DHT22;662;48.814;9.318;2023-06-19T03:10:11;25.50;45.20
1337;DHT22;662;48.814;9.318;2023-06-19T03:12:37;25.40;45.30
1337;DHT22;662;48.814;9.318;2023-06-19T03:15:03;25.40;45.50
1337;DHT22;662;48.814;9.318;2023-06-19T03:17:29;25.30;45.50
1337;DHT22;662;48.814;9.318;2023-06-19T03:19:54;25.30;45.60
1337;DHT22;662;48.814;9.318;2023-06-19T03:22:20;25.30;46.20
1337;DHT22;662;48.814;9.318;2023-06-19T03:24:47;25.30;45.80
1337;DHT22;662;48.814;9.318;2023-06-19T03:27:12;25.20;45.80
1337;DHT22;662;48.814;9.318;2023-06-19T03:29:38;25.20;45.90
1337;DHT22;662;48.814;9.318;2023-06-19T03:32:04;25.20;45.90
1337;DHT22;662;48.814;9.318;2023-06-19T03:34:32;25.20;46.60
1337;DHT22;662;48.814;9.318;2023-06-19T03:36:57;25.20;46.10
1337;DHT22;662;48.814;9.318;2023-06-19T03:39:23;25.20;46.80
1337;DHT22;662;48.814;9.318;2023-06-19T03:41:49;25.10;46.30
1337;DHT22;662;48.814;9.318;2023-06-19T03:44:14;25.10;46.90
1337;DHT22;662;48.814;9.318;2023-06-19T03:46:40;25.00;47.30
1337;DHT22;662;48.814;9.318;2023-06-19T03:49:05;25.00;47.70
1337;DHT22;662;48.814;9.318;2023-06-19T03:51:32;24.90;47.80
1337;DHT22;662;48.814;9.318;2023-06-19T03:53:58;24.90;47.80
1337;DHT22;662;48.814;9.318;2023-06-19T03:56:23;24.90;47.90
1337;DHT22;662;48.814;9.318;2023-06-19T03:58:49;24.80;47.90
1337;DHT22;662;48.814;9.318;2023-06-19T04:01:15;24.70;47.80
1337;DHT22;662;48.814;9.318;2023-06-19T04:03:40;24.70;47.70
1337;DHT22;662;48.814;9.318;2023-06-19T04:06:06;24.70;47.60
1337;DHT22;662;48.814;9.318;2023-06-19T04:08:33;24.60;47.70
1337;DHT22;662;48.814;9.318;2023-06-19T04:10:59;24.60;48.00
1337;DHT22;662;48.814;9.318;2023-06-19T04:13:25;24.60;48.20
1337;DHT22;662;48.814;9.318;2023-06-19T04:15:51;24.60;48.30
1337;DHT22;662;48.814;9.318;2023-06-19T04:18:17;24.60;48.50
1337;DHT22;662;48.814;9.318;2023-06-19T04:20:43;24.50;48.50
1337;DHT22;662;48.814;9.318;2023-06-19T04:23:09;24.50;48.50
1337;DHT22;662;48.814;9.318;2023-06-19T04:25:34;24.40;49.20
1337;DHT22;662;48.814;9.318;2023-06-19T04:28:00;24.40;48.80
1337;DHT22;662;48.814;9.318;2023-06-19T04:30:29;24.40;48.90
1337;DHT22;662;48.814;9.318;2023-06-19T04:32:56;24.40;48.90
1337;DHT22;662;48.814;9.318;2023-06-19T04:35:22;24.40;48.90
1337;DHT22;662;48.814;9.318;2023-06-19T04:37:49;24.40;49.00
1337;DHT22;662;48.814;9.318;2023-06-19T04:40:15;24.50;49.10
1337;DHT22;662;48.814;9.318;2023-06-19T04:42:41;24.50;49.00
1337;DHT22;662;48.814;9.318;2023-06-19T04:45:07;24.50;49.00
1337;DHT22;662;48.814;9.318;2023-06-19T04:47:33;24.60;49.10
1337;DHT22;662;48.814;9.318;2023-06-19T04:50:02;24.60;49.10
1337;DHT22;662;48.814;9.318;2023-06-19T04:52:27;24.60;49.00
1337;DHT22;662;48.814;9.318;2023-06-19T04:54:54;24.60;48.80
1337;DHT22;662;48.814;9.318;2023-06-19T04:57:19;24.70;48.80
1337;DHT22;662;48.814;9.318;2023-06-19T04:59:45;24.70;48.90
1337;DHT22;662;48.814;9.318;2023-06-19T05:02:11;24.70;48.90
1337;DHT22;662;48.814;9.318;2023-06-19T05:04:36;24.80;49.20
1337;DHT22;662;48.814;9.318;2023-06-19T05:07:02;24.70;49.00
1337;DHT22;662;48.814;9.318;2023-06-19T05:09:28;24.70;48.90
1337;DHT22;662;48.814;9.318;2023-06-19T05:11:54;24.80;49.10
1337;DHT22;662;48.814;9.318;2023-06-19T05:14:20;24.80;49.10
1337;DHT22;662;48.814;9.318;2023-06-19T05:16:45;24.90;49.10
1337;DHT22;662;48.814;9.318;2023-06-19T05:19:11;24.90;49.00
1337;DHT22;662;48.814;9.318;2023-06-19T05:21:36;25.00;49.00
1337;DHT22;662;48.814;9.318;2023-06-19T05:24:04;25.00;48.80
1337;DHT22;662;48.814;9.318;2023-06-19T05:26:29;25.20;48.80
1337;DHT22;662;48.814;9.318;2023-06-19T05:28:55;25.20;48.60
1337;DHT22;662;48.814;9.318;2023-06-19T05:31:30;25.40;48.50
1337;DHT22;662;48.814;9.318;2023-06-19T05:33:56;25.40;48.50
1337;DHT22;662;48.814;9.318;2023-06-19T05:36:24;25.50;48.80
1337;DHT22;662;48.814;9.318;2023-06-19T05:38:49;25.50;48.70
1337;DHT22;662;48.814;9.318;2023-06-19T05:41:16;25.60;48.80
1337;DHT22;662;48.814;9.318;2023-06-19T05:43:41;25.60;48.80
1337;DHT22;662;48.814;9.318;2023-06-19T05:46:07;25.60;48.90
1337;DHT22;662;48.814;9.318;2023-06-19T05:48:32;25.50;48.60
1337;DHT22;662;48.814;9.318;2023-06-19T05:50:58;25.50;48.90
1337;DHT22;662;48.814;9.318;2023-06-19T05:53:24;25.40;49.10
1337;DHT22;662;48.814;9.318;2023-06-19T05:55:49;25.40;49.30
1337;DHT22;662;48.814;9.318;2023-06-19T05:58:15;25.40;49.30
1337;DHT22;662;48.814;9.318;2023-06-19T06:00:41;25.30;49.40
1337;DHT22;662;48.814;9.318;2023-06-19T06:03:06;25.30;49.60
1337;DHT22;662;48.814;9.318;2023-06-19T06:05:32;25.30;49.70
1337;DHT22;662;48.814;9.318;2023-06-19T06:07:57;25.30;49.80
1337;DHT22;662;48.814;9.318;2023-06-19T06:10:24;25.30;49.80
1337;DHT22;662;48.814;9.318;2023-06-19T06:12:52;25.30;49.80
1337;DHT22;662;48.814;9.318;2023-06-19T06:15:18;25.30;49.90
1337;DHT22;662;48.814;9.318;2023-06-19T06:17:44;25.30;50.00
1337;DHT22;662;48.814;9.318;2023-06-19T06:20:10;25.30;50.00
1337;DHT22;662;48.814;9.318;2023-06-19T06:22:39;25.30;50.00
1337;DHT22;662;48.814;9.318;2023-06-19T06:25:05;25.30;50.00
1337;DHT22;662;48.814;9.318;2023-06-19T06:27:31;25.30;50.00
1337;DHT22;662;48.814;9.318;2023-06-19T06:29:59;25.30;50.10
1337;DHT22;662;48.814;9.318;2023-06-19T06:32:25;25.30;50.20
1337;DHT22;662;48.814;9.318;2023-06-19T06:34:51;25.20;50.30
1337;DHT22;662;48.814;9.318;2023-06-19T06:37:17;25.20;50.50
1337;DHT22;662;48.814;9.318;2023-06-19T06:39:51;25.10;50.70
1337;DHT22;662;48.814;9.318;2023-06-19T06:42:17;25.10;50.70
1337;DHT22;662;48.814;9.318;2023-06-19T06:44:44;25.20;50.80
1337;DHT22;662;48.814;9.318;2023-06-19T06:47:10;25.20;50.80
1337;DHT22;662;48.814;9.318;2023-06-19T06:49:36;25.30;50.80
1337;DHT22;662;48.814;9.318;2023-06-19T06:52:05;25.30;50.60
1337;DHT22;662;48.814;9.318;2023-06-19T06:54:31;25.40;50.60
1337;DHT22;662;48.814;9.318;2023-06-19T06:56:57;25.50;50.30
1337;DHT22;662;48.814;9.318;2023-06-19T06:59:27;25.60;50.20
1337;DHT22;662;48.814;9.318;2023-06-19T07:01:54;25.70;50.00
1337;DHT22;662;48.814;9.318;2023-06-19T07:04:20;25.80;49.90
1337;DHT22;662;48.814;9.318;2023-06-19T07:06:46;25.90;49.60
1337;DHT22;662;48.814;9.318;2023-06-19T07:09:12;26.10;49.40
1337;DHT22;662;48.814;9.318;2023-06-19T07:11:37;26.20;49.10
1337;DHT22;662;48.814;9.318;2023-06-19T07:14:03;26.40;48.90
1337;DHT22;662;48.814;9.318;2023-06-19T07:16:29;26.50;48.70
1337;DHT22;662;48.814;9.318;2023-06-19T07:18:54;26.70;48.70
1337;DHT22;662;48.814;9.318;2023-06-19T07:21:20;26.80;48.60
1337;DHT22;662;48.814;9.318;2023-06-19T07:23:46;26.90;48.20
1337;DHT22;662;48.814;9.318;2023-06-19T07:26:15;26.90;47.40
1337;DHT22;662;48.814;9.318;2023-06-19T07:28:41;26.70;47.20
1337;DHT22;662;48.814;9.318;2023-06-19T07:31:07;26.70;47.60
1337;DHT22;662;48.814;9.318;2023-06-19T07:33:33;26.70;47.30
1337;DHT22;662;48.814;9.318;2023-06-19T07:36:00;26.70;47.50
1337;DHT22;662;48.814;9.318;2023-06-19T07:38:28;26.70;47.50
1337;DHT22;662;48.814;9.318;2023-06-19T07:40:54;26.70;47.40
1337;DHT22;662;48.814;9.318;2023-06-19T07:43:19;26.80;47.70
1337;DHT22;662;48.814;9.318;2023-06-19T07:45:48;26.80;47.70
1337;DHT22;662;48.814;9.318;2023-06-19T07:48:14;26.90;47.80
1337;DHT22;662;48.814;9.318;2023-06-19T07:50:39;27.00;46.60
1337;DHT22;662;48.814;9.318;2023-06-19T07:53:05;27.10;46.40
1337;DHT22;662;48.814;9.318;2023-06-19T07:55:31;27.20;46.30
1337;DHT22;662;48.814;9.318;2023-06-19T07:57:57;27.30;45.80
1337;DHT22;662;48.814;9.318;2023-06-19T08:00:26;27.40;45.10
1337;DHT22;662;48.814;9.318;2023-06-19T08:02:52;27.40;45.30
1337;DHT22;662;48.814;9.318;2023-06-19T08:05:18;27.50;44.90
1337;DHT22;662;48.814;9.318;2023-06-19T08:07:44;27.60;44.70
1337;DHT22;662;48.814;9.318;2023-06-19T08:10:10;27.50;44.20
1337;DHT22;662;48.814;9.318;2023-06-19T08:12:36;27.60;44.90
1337;DHT22;662;48.814;9.318;2023-06-19T08:15:02;27.60;44.80
1337;DHT22;662;48.814;9.318;2023-06-19T08:17:27;27.60;44.60
1337;DHT22;662;48.814;9.318;2023-06-19T08:19:53;27.70;44.20
1337;DHT22;662;48.814;9.318;2023-06-19T08:22:19;27.70;44.30
1337;DHT22;662;48.814;9.318;2023-06-19T08:24:44;27.70;44.30
1337;DHT22;662;48.814;9.318;2023-06-19T08:27:10;27.80;44.20
1337;DHT22;662;48.814;9.318;2023-06-19T08:29:36;27.90;44.10
1337;DHT22;662;48.814;9.318;2023-06-19T08:32:01;28.00;44.00
1337;DHT22;662;48.814;9.318;2023-06-19T08:34:28;28.10;43.80
1337;DHT22;662;48.814;9.318;2023-06-19T08:36:53;28.20;43.50
1337;DHT22;662;48.814;9.318;2023-06-19T08:39:19;28.20;43.20
1337;DHT22;662;48.814;9.318;2023-06-19T08:41:47;28.20;43.20
1337;DHT22;662;48.814;9.318;2023-06-19T08:44:13;28.30;43.20
1337;DHT22;662;48.814;9.318;2023-06-19T08:46:38;28.30;42.90
1337;DHT22;662;48.814;9.318;2023-06-19T08:49:07;28.30;42.40
1337;DHT22;662;48.814;9.318;2023-06-19T08:51:35;28.20;42.10
1337;DHT22;662;48.814;9.318;2023-06-19T08:54:04;28.20;42.40
1337;DHT22;662;48.814;9.318;2023-06-19T08:56:31;28.20;42.30
1337;DHT22;662;48.814;9.318;2023-06-19T08:59:20;28.20;42.50
1337;DHT22;662;48.814;9.318;2023-06-19T09:01:53;28.30;42.90
1337;DHT22;662;48.814;9.318;2023-06-19T09:04:21;28.40;42.90
1337;DHT22;662;48.814;9.318;2023-06-19T09:06:51;28.40;42.90
1337;DHT22;662;48.814;9.318;2023-06-19T09:09:19;28.50;42.90
1337;DHT22;662;48.814;9.318;2023-06-19T09:12:07;28.50;42.90
1337;DHT22;662;48.814;9.318;2023-06-19T09:14:38;28.60;42.60
1337;DHT22;662;48.814;9.318;2023-06-19T09:17:06;28.60;42.60
1337;DHT22;662;48.814;9.318;2023-06-19T09:19:33;28.60;42.70
1337;DHT22;662;48.814;9.318;2023-06-19T09:22:04;28.70;42.50
1337;DHT22;662;48.814;9.318;2023-06-19T09:24:35;28.80;42.10
1337;DHT22;662;48.814;9.318;2023-06-19T09:27:12;28.80;42.20
1337;DHT22;662;48.814;9.318;2023-06-19T09:29:43;28.90;42.50
1337;DHT22;662;48.814;9.318;2023-06-19T09:32:18;29.10;42.30
1337;DHT22;662;48.814;9.318;2023-06-19T09:34:44;29.30;42.40
1337;DHT22;662;48.814;9.318;2023-06-19T09:37:10;29.50;42.70
1337;DHT22;662;48.814;9.318;2023-06-19T09:39:37;29.80;42.60
1337;DHT22;662;48.814;9.318;2023-06-19T09:42:06;30.00;41.40
1337;DHT22;662;48.814;9.318;2023-06-19T09:44:40;30.20;41.10
1337;DHT22;662;48.814;9.318;2023-06-19T09:47:21;30.30;41.20
1337;DHT22;662;48.814;9.318;2023-06-19T09:49:53;30.50;40.80
1337;DHT22;662;48.814;9.318;2023-06-19T09:52:20;30.80;40.20
1337;DHT22;662;48.814;9.318;2023-06-19T09:54:49;31.30;39.60
1337;DHT22;662;48.814;9.318;2023-06-19T09:57:15;32.10;37.90
1337;DHT22;662;48.814;9.318;2023-06-19T09:59:42;32.80;37.10
1337;DHT22;662;48.814;9.318;2023-06-19T10:02:08;33.70;35.60
1337;DHT22;662;48.814;9.318;2023-06-19T10:05:05;34.50;34.20
1337;DHT22;662;48.814;9.318;2023-06-19T10:07:35;35.40;32.60
1337;DHT22;662;48.814;9.318;2023-06-19T10:10:09;35.80;31.80
1337;DHT22;662;48.814;9.318;2023-06-19T10:12:42;35.90;31.10
1337;DHT22;662;48.814;9.318;2023-06-19T10:15:16;35.80;31.30
1337;DHT22;662;48.814;9.318;2023-06-19T10:17:47;35.90;31.90
1337;DHT22;662;48.814;9.318;2023-06-19T10:20:29;36.00;30.90
1337;DHT22;662;48.814;9.318;2023-06-19T10:23:01;36.10;31.00
1337;DHT22;662;48.814;9.318;2023-06-19T10:25:29;36.20;30.80
1337;DHT22;662;48.814;9.318;2023-06-19T10:27:57;36.50;30.20
1337;DHT22;662;48.814;9.318;2023-06-19T10:30:23;36.80;29.90
1337;DHT22;662;48.814;9.318;2023-06-19T10:32:49;37.10;29.90
1337;DHT22;662;48.814;9.318;2023-06-19T10:35:16;37.70;29.10
1337;DHT22;662;48.814;9.318;2023-06-19T10:37:43;38.10;28.80
1337;DHT22;662;48.814;9.318;2023-06-19T10:40:09;38.60;28.20
1337;DHT22;662;48.814;9.318;2023-06-19T10:42:39;39.00;27.70
1337;DHT22;662;48.814;9.318;2023-06-19T10:45:08;39.50;27.30
1337;DHT22;662;48.814;9.318;2023-06-19T10:47:43;39.90;26.70
1337;DHT22;662;48.814;9.318;2023-06-19T10:50:13;40.30;26.40
1337;DHT22;662;48.814;9.318;2023-06-19T10:52:41;40.60;25.90
1337;DHT22;662;48.814;9.318;2023-06-19T10:55:07;40.90;26.00
1337;DHT22;662;48.814;9.318;2023-06-19T10:57:33;41.20;25.80
1337;DHT22;662;48.814;9.318;2023-06-19T10:59:59;41.60;25.80
1337;DHT22;662;48.814;9.318;2023-06-19T11:02:25;41.80;25.10
1337;DHT22;662;48.814;9.318;2023-06-19T11:04:54;41.90;25.10
1337;DHT22;662;48.814;9.318;2023-06-19T11:07:22;42.00;25.00
1337;DHT22;662;48.814;9.318;2023-06-19T11:09:49;41.60;24.70
1337;DHT22;662;48.814;9.318;2023-06-19T11:12:21;41.00;25.40
1337;DHT22;662;48.814;9.318;2023-06-19T11:14:50;40.40;26.00
1337;DHT22;662;48.814;9.318;2023-06-19T11:17:17;40.00;26.40
1337;DHT22;662;48.814;9.318;2023-06-19T11:19:50;39.50;26.90
1337;DHT22;662;48.814;9.318;2023-06-19T11:22:16;39.00;27.50
1337;DHT22;662;48.814;9.318;2023-06-19T11:24:45;38.50;28.10
1337;DHT22;662;48.814;9.318;2023-06-19T11:27:20;37.90;28.50
1337;DHT22;662;48.814;9.318;2023-06-19T11:29:55;37.30;29.10
1337;DHT22;662;48.814;9.318;2023-06-19T11:32:21;36.90;29.90
1337;DHT22;662;48.814;9.318;2023-06-19T11:34:51;37.00;30.50
1337;DHT22;662;48.814;9.318;2023-06-19T11:37:18;37.20;30.20
1337;DHT22;662;48.814;9.318;2023-06-19T11:39:47;37.70;29.80
1337;DHT22;662;48.814;9.318;2023-06-19T11:42:13;38.20;29.10
1337;DHT22;662;48.814;9.318;2023-06-19T11:44:55;38.80;28.40
1337;DHT22;662;48.814;9.318;2023-06-19T11:47:21;39.30;28.00
1337;DHT22;662;48.814;9.318;2023-06-19T11:49:51;39.70;27.60
1337;DHT22;662;48.814;9.318;2023-06-19T11:52:17;39.90;27.40
1337;DHT22;662;48.814;9.318;2023-06-19T11:54:43;40.00;27.00
1337;DHT22;662;48.814;9.318;2023-06-19T11:57:12;40.20;26.70
1337;DHT22;662;48.814;9.318;2023-06-19T11:59:39;40.40;26.80
1337;DHT22;662;48.814;9.318;2023-06-19T12:02:06;40.70;26.50
1337;DHT22;662;48.814;9.318;2023-06-19T12:04:31;41.10;26.30
1337;DHT22;662;48.814;9.318;2023-06-19T12:06:57;41.60;25.90
1337;DHT22;662;48.814;9.318;2023-06-19T12:09:23;42.20;25.70
1337;DHT22;662;48.814;9.318;2023-06-19T12:11:48;42.80;25.20
1337;DHT22;662;48.814;9.318;2023-06-19T12:14:14;43.20;24.60
1337;DHT22;662;48.814;9.318;2023-06-19T12:16:40;43.30;24.30
1337;DHT22;662;48.814;9.318;2023-06-19T12:19:05;43.50;24.30
1337;DHT22;662;48.814;9.318;2023-06-19T12:21:31;43.70;23.70
1337;DHT22;662;48.814;9.318;2023-06-19T12:23:56;43.80;23.80
1337;DHT22;662;48.814;9.318;2023-06-19T12:26:24;44.00;23.90
1337;DHT22;662;48.814;9.318;2023-06-19T12:28:51;43.80;23.70
1337;DHT22;662;48.814;9.318;2023-06-19T12:31:17;43.60;24.00
1337;DHT22;662;48.814;9.318;2023-06-19T12:33:43;43.00;23.90
1337;DHT22;662;48.814;9.318;2023-06-19T12:36:13;42.50;24.20
1337;DHT22;662;48.814;9.318;2023-06-19T12:38:40;42.10;25.00
1337;DHT22;662;48.814;9.318;2023-06-19T12:41:06;41.80;25.30
1337;DHT22;662;48.814;9.318;2023-06-19T12:43:31;41.50;25.40
1337;DHT22;662;48.814;9.318;2023-06-19T12:45:57;41.30;25.70
1337;DHT22;662;48.814;9.318;2023-06-19T12:48:25;41.30;25.90
1337;DHT22;662;48.814;9.318;2023-06-19T12:50:51;41.10;25.70
1337;DHT22;662;48.814;9.318;2023-06-19T12:53:16;41.00;26.30
1337;DHT22;662;48.814;9.318;2023-06-19T12:55:42;40.90;25.60
1337;DHT22;662;48.814;9.318;2023-06-19T12:58:08;40.70;26.10
1337;DHT22;662;48.814;9.318;2023-06-19T13:00:34;40.90;26.60
1337;DHT22;662;48.814;9.318;2023-06-19T13:03:00;41.20;26.10
1337;DHT22;662;48.814;9.318;2023-06-19T13:05:26;41.50;25.50
1337;DHT22;662;48.814;9.318;2023-06-19T13:07:52;41.70;25.20
1337;DHT22;662;48.814;9.318;2023-06-19T13:10:17;41.60;25.30
1337;DHT22;662;48.814;9.318;2023-06-19T13:12:43;41.70;25.20
1337;DHT22;662;48.814;9.318;2023-06-19T13:15:09;42.00;25.10
1337;DHT22;662;48.814;9.318;2023-06-19T13:17:35;42.20;24.90
1337;DHT22;662;48.814;9.318;2023-06-19T13:20:00;42.40;24.70
1337;DHT22;662;48.814;9.318;2023-06-19T13:22:26;42.60;24.60
1337;DHT22;662;48.814;9.318;2023-06-19T13:24:52;42.40;24.30
1337;DHT22;662;48.814;9.318;2023-06-19T13:27:18;42.10;24.30
1337;DHT22;662;48.814;9.318;2023-06-19T13:29:43;42.00;24.40
1337;DHT22;662;48.814;9.318;2023-06-19T13:32:09;41.80;24.40
1337;DHT22;662;48.814;9.318;2023-06-19T13:34:35;41.30;24.70
1337;DHT22;662;48.814;9.318;2023-06-19T13:37:00;41.00;25.40
1337;DHT22;662;48.814;9.318;2023-06-19T13:39:26;41.00;25.90
1337;DHT22;662;48.814;9.318;2023-06-19T13:41:52;41.10;25.80
1337;DHT22;662;48.814;9.318;2023-06-19T13:44:17;41.20;25.60
1337;DHT22;662;48.814;9.318;2023-06-19T13:46:44;41.40;25.60
1337;DHT22;662;48.814;9.318;2023-06-19T13:49:10;41.50;25.40
1337;DHT22;662;48.814;9.318;2023-06-19T13:51:36;41.50;25.30
1337;DHT22;662;48.814;9.318;2023-06-19T13:54:02;41.50;25.00
1337;DHT22;662;48.814;9.318;2023-06-19T13:56:29;41.40;25.10
1337;DHT22;662;48.814;9.318;2023-06-19T13:58:55;41.30;25.20
1337;DHT22;662;48.814;9.318;2023-06-19T14:01:21;41.20;25.10
1337;DHT22;662;48.814;9.318;2023-06-19T14:03:46;41.00;25.40
1337;DHT22;662;48.814;9.318;2023-06-19T14:06:12;40.70;25.50
1337;DHT22;662;48.814;9.318;2023-06-19T14:08:38;40.40;25.60
1337;DHT22;662;48.814;9.318;2023-06-19T14:11:05;40.00;25.60
1337;DHT22;662;48.814;9.318;2023-06-19T14:13:30;39.90;25.70
1337;DHT22;662;48.814;9.318;2023-06-19T14:15:56;39.80;26.50
1337;DHT22;662;48.814;9.318;2023-06-19T14:18:22;39.70;26.70
1337;DHT22;662;48.814;9.318;2023-06-19T14:20:48;39.60;27.00
1337;DHT22;662;48.814;9.318;2023-06-19T14:23:13;39.50;27.30
1337;DHT22;662;48.814;9.318;2023-06-19T14:25:39;39.30;27.40
1337;DHT22;662;48.814;9.318;2023-06-19T14:28:05;39.20;27.60
1337;DHT22;662;48.814;9.318;2023-06-19T14:30:30;39.10;27.50
1337;DHT22;662;48.814;9.318;2023-06-19T14:32:56;38.90;27.50
1337;DHT22;662;48.814;9.318;2023-06-19T14:35:22;38.80;27.70
1337;DHT22;662;48.814;9.318;2023-06-19T14:37:47;38.60;27.80
1337;DHT22;662;48.814;9.318;2023-06-19T14:40:13;38.70;27.90
1337;DHT22;662;48.814;9.318;2023-06-19T14:42:39;38.60;27.80
1337;DHT22;662;48.814;9.318;2023-06-19T14:45:04;38.60;27.90
1337;DHT22;662;48.814;9.318;2023-06-19T14:47:30;38.70;27.90
1337;DHT22;662;48.814;9.318;2023-06-19T14:49:56;38.70;27.70
1337;DHT22;662;48.814;9.318;2023-06-19T14:52:21;38.70;27.50
1337;DHT22;662;48.814;9.318;2023-06-19T14:54:47;38.50;27.70
1337;DHT22;662;48.814;9.318;2023-06-19T14:57:13;38.30;27.70
1337;DHT22;662;48.814;9.318;2023-06-19T14:59:39;38.30;27.90
1337;DHT22;662;48.814;9.318;2023-06-19T15:02:05;38.20;27.90
1337;DHT22;662;48.814;9.318;2023-06-19T15:04:32;38.20;27.90
1337;DHT22;662;48.814;9.318;2023-06-19T15:06:58;38.00;28.10
1337;DHT22;662;48.814;9.318;2023-06-19T15:09:24;37.90;28.30
1337;DHT22;662;48.814;9.318;2023-06-19T15:11:51;37.80;28.60
1337;DHT22;662;48.814;9.318;2023-06-19T15:14:17;37.80;28.70
1337;DHT22;662;48.814;9.318;2023-06-19T15:16:43;37.60;29.10
1337;DHT22;662;48.814;9.318;2023-06-19T15:19:09;37.30;29.30
1337;DHT22;662;48.814;9.318;2023-06-19T15:21:34;37.00;29.70
1337;DHT22;662;48.814;9.318;2023-06-19T15:24:00;36.70;30.00
1337;DHT22;662;48.814;9.318;2023-06-19T15:26:26;36.50;30.00
1337;DHT22;662;48.814;9.318;2023-06-19T15:28:51;36.40;30.00
1337;DHT22;662;48.814;9.318;2023-06-19T15:31:20;36.40;30.10
1337;DHT22;662;48.814;9.318;2023-06-19T15:33:47;36.30;30.20
1337;DHT22;662;48.814;9.318;2023-06-19T15:36:12;36.20;30.60
1337;DHT22;662;48.814;9.318;2023-06-19T15:38:38;36.10;30.50
1337;DHT22;662;48.814;9.318;2023-06-19T15:41:04;36.00;30.70
1337;DHT22;662;48.814;9.318;2023-06-19T15:43:29;35.90;30.80
1337;DHT22;662;48.814;9.318;2023-06-19T15:45:59;35.90;31.00
1337;DHT22;662;48.814;9.318;2023-06-19T15:48:25;35.90;31.30
1337;DHT22;662;48.814;9.318;2023-06-19T15:50:50;35.80;31.50
1337;DHT22;662;48.814;9.318;2023-06-19T15:53:17;35.70;31.60
1337;DHT22;662;48.814;9.318;2023-06-19T15:55:43;35.60;32.00
1337;DHT22;662;48.814;9.318;2023-06-19T15:58:09;35.40;32.00
1337;DHT22;662;48.814;9.318;2023-06-19T16:00:34;35.30;32.30
1337;DHT22;662;48.814;9.318;2023-06-19T16:03:00;35.10;32.30
1337;DHT22;662;48.814;9.318;2023-06-19T16:05:26;34.90;32.40
1337;DHT22;662;48.814;9.318;2023-06-19T16:07:52;34.80;32.90
1337;DHT22;662;48.814;9.318;2023-06-19T16:10:18;34.60;32.90
1337;DHT22;662;48.814;9.318;2023-06-19T16:12:44;34.50;33.00
1337;DHT22;662;48.814;9.318;2023-06-19T16:15:11;34.30;33.40
1337;DHT22;662;48.814;9.318;2023-06-19T16:17:41;34.10;33.70